createdAt,value
2019-03-09T00:02:00.135Z,9.10
2019-03-09T00:04:31.274Z,9.20
2019-03-09T00:07:01.946Z,9.20
2019-03-09T00:09:32.350Z,9.20
2019-03-09T00:12:04.090Z,9.20
2019-03-09T00:14:34.199Z,9.20
2019-03-09T00:17:05.242Z,9.20
2019-03-09T00:19:36.160Z,9.30
2019-03-09T00:22:07.664Z,9.30
2019-03-09T00:24:44.767Z,9.30
2019-03-09T00:27:33.104Z,9.30
2019-03-09T00:30:19.317Z,9.30
2019-03-09T00:32:50.154Z,9.30
2019-03-09T00:35:20.292Z,9.30
2019-03-09T00:37:51.621Z,9.30
2019-03-09T00:40:22.540Z,9.30
2019-03-09T00:42:53.509Z,9.30
2019-03-09T00:45:24.091Z,9.30
2019-03-09T00:47:56.012Z,9.30
2019-03-09T00:50:27.150Z,9.30
2019-03-09T00:52:57.695Z,9.30
2019-03-09T00:55:28.417Z,9.40
2019-03-09T00:57:59.177Z,9.40
2019-03-09T01:00:30.106Z,9.40
2019-03-09T01:03:01.468Z,9.40
2019-03-09T01:05:32.316Z,9.40
2019-03-09T01:08:03.765Z,9.40
2019-03-09T01:10:34.510Z,9.40
2019-03-09T01:13:05.444Z,9.40
2019-03-09T01:15:36.596Z,9.40
2019-03-09T01:18:06.916Z,9.30
2019-03-09T01:20:37.589Z,9.30
2019-03-09T01:23:08.179Z,9.30
2019-03-09T01:25:38.471Z,9.30
2019-03-09T01:28:09.469Z,9.30
2019-03-09T01:30:40.612Z,9.30
2019-03-09T01:33:11.762Z,9.20
2019-03-09T01:35:42.879Z,9.20
2019-03-09T01:38:14.264Z,9.20
2019-03-09T01:40:45.623Z,9.20
2019-03-09T01:43:16.379Z,9.20
2019-03-09T01:45:47.500Z,9.20
2019-03-09T01:48:18.848Z,9.20
2019-03-09T01:50:49.787Z,9.20
2019-03-09T01:53:20.330Z,9.20
2019-03-09T01:55:51.273Z,9.20
2019-03-09T01:58:22.161Z,9.20
2019-03-09T02:00:53.156Z,9.10
2019-03-09T02:03:24.303Z,9.20
2019-03-09T02:05:55.034Z,9.20
2019-03-09T02:08:25.980Z,9.10
2019-03-09T02:10:56.511Z,9.10
2019-03-09T02:13:27.463Z,9.10
2019-03-09T02:15:58.580Z,9.10
2019-03-09T02:18:29.087Z,9.10
2019-03-09T02:21:01.308Z,9.10
2019-03-09T02:23:32.671Z,9.10
2019-03-09T02:26:03.209Z,9.00
2019-03-09T02:28:33.528Z,9.10
2019-03-09T02:31:04.497Z,9.10
2019-03-09T02:33:35.213Z,9.10
2019-03-09T02:36:05.742Z,9.10
2019-03-09T02:38:44.054Z,9.10
2019-03-09T02:41:14.804Z,9.10
2019-03-09T02:43:45.802Z,9.10
2019-03-09T02:46:17.086Z,9.10
2019-03-09T02:48:48.003Z,9.10
2019-03-09T02:51:18.357Z,9.10
2019-03-09T02:53:48.903Z,9.10
2019-03-09T02:56:19.308Z,9.20
2019-03-09T02:58:50.381Z,9.20
2019-03-09T03:01:46.107Z,9.20
2019-03-09T03:04:17.260Z,9.20
2019-03-09T03:06:47.708Z,9.10
2019-03-09T03:09:18.342Z,9.10
2019-03-09T03:11:49.429Z,9.10
2019-03-09T03:14:19.951Z,9.20
2019-03-09T03:16:50.524Z,9.10
2019-03-09T03:19:21.318Z,9.10
2019-03-09T03:21:52.198Z,9.10
2019-03-09T03:24:23.569Z,9.10
2019-03-09T03:26:54.305Z,9.10
2019-03-09T03:29:25.277Z,9.10
2019-03-09T03:31:56.193Z,9.00
2019-03-09T03:34:27.544Z,9.00
2019-03-09T03:36:58.277Z,8.90
2019-03-09T03:39:28.580Z,8.90
2019-03-09T03:41:59.394Z,8.80
2019-03-09T03:44:29.828Z,8.70
2019-03-09T03:47:00.814Z,8.60
2019-03-09T03:49:31.721Z,8.60
2019-03-09T03:52:03.660Z,8.50
2019-03-09T03:54:34.679Z,8.50
2019-03-09T03:57:05.415Z,8.50
2019-03-09T03:59:36.169Z,8.40
2019-03-09T04:02:07.096Z,8.30
2019-03-09T04:04:38.239Z,8.20
2019-03-09T04:07:09.519Z,8.10
2019-03-09T04:09:40.244Z,8.00
2019-03-09T04:12:11.482Z,8.00
2019-03-09T04:14:42.822Z,8.00
2019-03-09T04:17:13.300Z,8.00
2019-03-09T04:19:44.290Z,8.00
2019-03-09T04:22:14.276Z,8.00
2019-03-09T04:24:45.368Z,8.10
2019-03-09T04:27:15.702Z,8.10
2019-03-09T04:29:46.215Z,8.10
2019-03-09T04:32:16.772Z,8.10
2019-03-09T04:34:47.276Z,8.10
2019-03-09T04:37:18.167Z,8.10
2019-03-09T04:39:50.008Z,8.10
2019-03-09T04:42:20.744Z,8.10
2019-03-09T04:44:51.028Z,8.20
2019-03-09T04:47:20.741Z,8.10
2019-03-09T04:49:51.256Z,8.10
2019-03-09T04:52:21.774Z,8.20
2019-03-09T04:54:52.752Z,8.20
2019-03-09T04:57:23.542Z,8.10
2019-03-09T04:59:54.470Z,8.10
2019-03-09T05:02:24.812Z,8.10
2019-03-09T05:04:55.802Z,8.20
2019-03-09T05:07:52.462Z,8.10
2019-03-09T05:10:46.351Z,8.10
2019-03-09T05:13:21.137Z,8.20
2019-03-09T05:15:52.354Z,8.20
2019-03-09T05:18:22.866Z,8.20
2019-03-09T05:20:53.828Z,8.20
2019-03-09T05:23:24.990Z,8.20
2019-03-09T05:25:55.929Z,8.20
2019-03-09T05:28:26.466Z,8.20
2019-03-09T05:30:57.203Z,8.30
2019-03-09T05:33:27.524Z,8.30
2019-03-09T05:35:58.480Z,8.30
2019-03-09T05:38:29.050Z,8.30
2019-03-09T05:40:59.497Z,8.40
2019-03-09T05:43:30.279Z,8.40
2019-03-09T05:46:00.802Z,8.40
2019-03-09T05:48:31.541Z,8.40
2019-03-09T05:51:02.489Z,8.50
2019-03-09T05:53:33.222Z,8.50
2019-03-09T05:56:03.768Z,8.50
2019-03-09T05:58:34.761Z,8.50
2019-03-09T06:01:06.044Z,8.50
2019-03-09T06:03:36.595Z,8.50
2019-03-09T06:06:14.859Z,8.50
2019-03-09T06:08:46.635Z,8.40
2019-03-09T06:11:17.417Z,8.50
2019-03-09T06:13:48.558Z,8.50
2019-03-09T06:16:19.905Z,8.50
2019-03-09T06:18:50.561Z,8.50
2019-03-09T06:21:20.565Z,8.50
2019-03-09T06:23:51.103Z,8.50
2019-03-09T06:26:22.051Z,8.50
2019-03-09T06:28:52.283Z,8.50
2019-03-09T06:31:23.320Z,8.60
2019-03-09T06:33:56.086Z,8.60
2019-03-09T06:36:47.103Z,8.60
2019-03-09T06:39:29.943Z,8.60
2019-03-09T06:42:09.094Z,8.70
2019-03-09T06:44:39.641Z,8.70
2019-03-09T06:47:10.556Z,8.70
2019-03-09T06:49:41.491Z,8.80
2019-03-09T06:52:12.833Z,8.80
2019-03-09T06:54:43.987Z,8.90
2019-03-09T06:57:14.732Z,8.90
2019-03-09T06:59:45.356Z,8.90
2019-03-09T07:02:16.350Z,9.00
2019-03-09T07:04:46.377Z,9.00
2019-03-09T07:07:17.005Z,9.00
2019-03-09T07:09:47.719Z,9.10
2019-03-09T07:12:18.709Z,9.10
2019-03-09T07:15:27.577Z,9.10
2019-03-09T07:18:09.566Z,9.20
2019-03-09T07:20:40.739Z,9.20
2019-03-09T07:23:11.171Z,9.30
2019-03-09T07:25:41.723Z,9.30
2019-03-09T07:28:14.192Z,9.30
2019-03-09T07:30:45.312Z,9.40
2019-03-09T07:33:16.205Z,9.50
2019-03-09T07:35:47.606Z,9.60
2019-03-09T07:38:19.182Z,9.70
2019-03-09T07:40:49.909Z,9.70
2019-03-09T07:43:20.851Z,9.70
2019-03-09T07:45:51.734Z,9.70
2019-03-09T07:48:22.947Z,9.80
2019-03-09T07:50:53.585Z,9.90
2019-03-09T07:53:24.627Z,10.00
2019-03-09T07:55:55.778Z,10.00
2019-03-09T07:58:26.517Z,10.10
2019-03-09T08:00:57.580Z,10.60
2019-03-09T08:03:28.083Z,11.10
2019-03-09T08:05:58.911Z,11.70
2019-03-09T08:08:29.786Z,11.80
2019-03-09T08:11:00.772Z,11.80
2019-03-09T08:13:30.897Z,11.80
2019-03-09T08:16:01.489Z,12.10
2019-03-09T08:18:32.426Z,12.30
2019-03-09T08:21:03.164Z,12.30
2019-03-09T08:23:39.919Z,12.30
2019-03-09T08:26:10.898Z,12.20
2019-03-09T08:28:41.523Z,12.20
2019-03-09T08:31:12.167Z,12.50
2019-03-09T08:33:42.830Z,12.70
2019-03-09T08:36:12.979Z,12.90
2019-03-09T08:38:44.493Z,12.90
2019-03-09T08:41:14.816Z,12.70
2019-03-09T08:43:45.356Z,12.50
2019-03-09T08:46:16.045Z,12.20
2019-03-09T08:48:47.042Z,12.00
2019-03-09T08:51:17.907Z,11.90
2019-03-09T08:53:48.783Z,11.80
2019-03-09T08:56:19.026Z,11.70
2019-03-09T08:58:50.190Z,11.70
2019-03-09T09:01:20.815Z,11.80
2019-03-09T09:03:51.068Z,11.80
2019-03-09T09:06:23.218Z,11.80
2019-03-09T09:08:53.728Z,11.80
2019-03-09T09:11:23.875Z,11.90
2019-03-09T09:13:54.415Z,11.80
2019-03-09T09:16:25.148Z,11.80
2019-03-09T09:18:55.679Z,11.80
2019-03-09T09:21:26.554Z,11.70
2019-03-09T09:23:57.101Z,11.70
2019-03-09T09:26:27.276Z,11.70
2019-03-09T09:28:58.618Z,11.80
2019-03-09T09:31:29.777Z,11.80
2019-03-09T09:34:00.508Z,11.80
2019-03-09T09:36:31.227Z,11.90
2019-03-09T09:39:02.640Z,11.90
2019-03-09T09:41:34.510Z,11.90
2019-03-09T09:44:05.099Z,11.90
2019-03-09T09:46:35.512Z,12.00
2019-03-09T09:49:06.976Z,12.20
2019-03-09T09:51:37.760Z,12.30
2019-03-09T09:54:08.066Z,12.40
2019-03-09T09:56:38.778Z,12.50
2019-03-09T09:59:09.742Z,12.50
2019-03-09T10:01:40.329Z,12.60
2019-03-09T10:04:10.791Z,12.60
2019-03-09T10:06:41.334Z,12.60
2019-03-09T10:09:12.683Z,12.60
2019-03-09T10:11:43.236Z,12.60
2019-03-09T10:14:13.846Z,12.50
2019-03-09T10:16:44.422Z,12.50
2019-03-09T10:19:15.033Z,12.60
2019-03-09T10:21:45.064Z,12.60
2019-03-09T10:24:15.678Z,12.70
2019-03-09T10:26:46.010Z,12.70
2019-03-09T10:29:18.601Z,12.70
2019-03-09T10:31:49.330Z,12.80
2019-03-09T10:34:20.018Z,13.10
2019-03-09T10:36:50.399Z,13.20
2019-03-09T10:39:20.863Z,13.10
2019-03-09T10:41:51.473Z,13.00
2019-03-09T10:44:22.821Z,13.00
2019-03-09T10:46:53.083Z,12.90
2019-03-09T10:49:24.719Z,12.80
2019-03-09T10:51:55.577Z,12.70
2019-03-09T10:54:35.569Z,12.80
2019-03-09T10:56:58.685Z,12.80
2019-03-09T10:59:29.539Z,12.80
2019-03-09T11:02:00.250Z,12.80
2019-03-09T11:04:31.598Z,12.80
2019-03-09T11:07:02.543Z,12.70
2019-03-09T11:09:33.275Z,12.60
2019-03-09T11:12:04.305Z,12.50
2019-03-09T11:14:35.323Z,12.50
2019-03-09T11:17:06.499Z,12.50
2019-03-09T11:19:37.865Z,12.50
2019-03-09T11:22:08.199Z,12.50
2019-03-09T11:24:39.145Z,12.60
2019-03-09T11:27:10.325Z,12.60
2019-03-09T11:29:41.430Z,12.60
2019-03-09T11:32:12.629Z,12.60
2019-03-09T11:34:43.739Z,12.50
2019-03-09T11:37:14.627Z,12.50
2019-03-09T11:39:46.040Z,12.50
2019-03-09T11:42:16.524Z,12.40
2019-03-09T11:44:46.709Z,12.40
2019-03-09T11:47:18.051Z,12.40
2019-03-09T11:49:48.350Z,12.30
2019-03-09T11:52:20.310Z,12.30
2019-03-09T11:54:52.706Z,12.30
2019-03-09T11:57:23.581Z,12.30
2019-03-09T11:59:54.192Z,12.30
2019-03-09T12:02:26.031Z,12.20
2019-03-09T12:04:56.489Z,12.20
2019-03-09T12:07:27.217Z,12.20
2019-03-09T12:09:57.662Z,12.20
2019-03-09T12:12:29.434Z,12.20
2019-03-09T12:15:00.870Z,12.20
2019-03-09T12:17:31.751Z,12.20
2019-03-09T12:20:02.080Z,12.20
2019-03-09T12:22:32.153Z,12.10
2019-03-09T12:25:03.004Z,12.10
2019-03-09T12:27:33.939Z,12.20
2019-03-09T12:30:05.989Z,12.20
2019-03-09T12:32:36.794Z,12.20
2019-03-09T12:35:08.146Z,12.20
2019-03-09T12:37:39.078Z,12.20
2019-03-09T12:40:12.387Z,12.40
2019-03-09T12:42:43.302Z,12.40
2019-03-09T12:45:15.654Z,12.50
2019-03-09T12:47:46.613Z,12.60
2019-03-09T12:50:17.236Z,12.60
2019-03-09T12:52:52.676Z,12.60
2019-03-09T12:55:24.148Z,12.70
2019-03-09T12:57:54.683Z,12.80
2019-03-09T13:00:25.582Z,13.00
2019-03-09T13:02:56.161Z,13.10
2019-03-09T13:05:26.832Z,13.00
2019-03-09T13:07:57.638Z,12.90
2019-03-09T13:10:28.017Z,13.00
2019-03-09T13:12:58.718Z,13.00
2019-03-09T13:15:29.451Z,13.00
2019-03-09T13:17:59.350Z,12.80
2019-03-09T13:20:29.698Z,12.50
2019-03-09T13:23:00.635Z,12.00
2019-03-09T13:25:31.842Z,11.70
2019-03-09T13:28:02.042Z,11.40
2019-03-09T13:30:32.400Z,11.10
2019-03-09T13:33:03.179Z,10.80
2019-03-09T13:35:34.123Z,10.70
2019-03-09T13:38:05.033Z,10.50
2019-03-09T13:40:36.050Z,10.40
2019-03-09T13:43:06.940Z,10.30
2019-03-09T13:45:37.687Z,10.30
2019-03-09T13:48:08.425Z,10.50
2019-03-09T13:50:38.819Z,10.50
2019-03-09T13:53:09.296Z,10.50
2019-03-09T13:55:39.460Z,10.50
2019-03-09T13:58:09.958Z,10.50
2019-03-09T14:00:41.089Z,10.50
2019-03-09T14:03:10.931Z,10.50
2019-03-09T14:05:41.968Z,10.50
2019-03-09T14:08:12.966Z,10.50
2019-03-09T14:10:43.845Z,10.60
2019-03-09T14:13:15.207Z,10.70
2019-03-09T14:15:46.555Z,10.80
2019-03-09T14:18:16.903Z,10.90
2019-03-09T14:20:48.522Z,10.90
2019-03-09T14:23:19.102Z,11.00
2019-03-09T14:25:49.715Z,11.00
2019-03-09T14:28:20.045Z,11.30
2019-03-09T14:30:51.206Z,11.90
2019-03-09T14:33:22.363Z,12.50
2019-03-09T14:35:53.273Z,13.10
2019-03-09T14:38:24.018Z,13.30
2019-03-09T14:40:54.993Z,13.10
2019-03-09T14:43:26.310Z,12.60
2019-03-09T14:45:56.546Z,12.30
2019-03-09T14:48:26.783Z,12.10
2019-03-09T14:50:58.328Z,11.90
2019-03-09T14:53:29.269Z,11.90
2019-03-09T14:56:00.225Z,11.80
2019-03-09T14:58:30.733Z,11.80
2019-03-09T15:01:01.462Z,11.80
2019-03-09T15:03:32.013Z,12.20
2019-03-09T15:06:02.770Z,13.00
2019-03-09T15:08:33.487Z,13.30
2019-03-09T15:11:04.025Z,13.10
2019-03-09T15:13:34.347Z,12.90
2019-03-09T15:16:04.676Z,12.90
2019-03-09T15:18:35.199Z,12.80
2019-03-09T15:21:05.627Z,12.80
2019-03-09T15:23:37.719Z,12.90
2019-03-09T15:26:08.460Z,12.90
2019-03-09T15:28:38.583Z,13.10
2019-03-09T15:31:09.551Z,13.40
2019-03-09T15:33:40.470Z,13.50
2019-03-09T15:36:11.194Z,13.40
2019-03-09T15:38:41.813Z,13.30
2019-03-09T15:41:12.487Z,13.40
2019-03-09T15:43:42.777Z,13.60
2019-03-09T15:46:13.609Z,13.40
2019-03-09T15:48:44.026Z,13.20
2019-03-09T15:51:14.614Z,13.20
2019-03-09T15:53:45.503Z,13.10
2019-03-09T15:56:16.222Z,13.10
2019-03-09T15:58:47.100Z,13.10
2019-03-09T16:01:17.744Z,13.00
2019-03-09T16:03:47.635Z,13.00
2019-03-09T16:06:18.584Z,12.90
2019-03-09T16:08:48.688Z,12.90
2019-03-09T16:11:18.766Z,12.80
2019-03-09T16:13:49.213Z,12.80
2019-03-09T16:16:19.216Z,12.70
2019-03-09T16:18:50.272Z,12.70
2019-03-09T16:21:20.300Z,12.70
2019-03-09T16:23:50.942Z,12.70
2019-03-09T16:26:21.009Z,12.60
2019-03-09T16:28:51.606Z,12.50
2019-03-09T16:31:23.236Z,12.50
2019-03-09T16:33:54.490Z,12.50
2019-03-09T16:36:25.649Z,12.40
2019-03-09T16:38:56.332Z,12.40
2019-03-09T16:41:27.006Z,12.50
2019-03-09T16:43:58.280Z,12.50
2019-03-09T16:46:28.910Z,12.40
2019-03-09T16:49:00.780Z,12.30
2019-03-09T16:51:31.328Z,12.20
2019-03-09T16:54:02.255Z,12.20
2019-03-09T16:56:32.796Z,12.20
2019-03-09T16:59:03.310Z,12.10
2019-03-09T17:01:33.730Z,12.10
2019-03-09T17:04:05.212Z,12.10
2019-03-09T17:06:35.918Z,12.10
2019-03-09T17:09:07.758Z,12.00
2019-03-09T17:11:38.860Z,12.00
2019-03-09T17:14:09.589Z,12.00
2019-03-09T17:16:39.921Z,12.00
2019-03-09T17:19:10.936Z,12.00
2019-03-09T17:21:41.608Z,12.00
2019-03-09T17:24:12.723Z,12.00
2019-03-09T17:26:43.486Z,11.90
2019-03-09T17:29:13.816Z,11.90
2019-03-09T17:31:44.491Z,11.80
2019-03-09T17:34:15.571Z,11.70
2019-03-09T17:36:46.646Z,11.70
2019-03-09T17:39:17.592Z,11.70
2019-03-09T17:41:48.241Z,11.70
2019-03-09T17:44:18.309Z,11.60
2019-03-09T17:46:49.093Z,11.50
2019-03-09T17:49:20.605Z,11.50
2019-03-09T17:51:50.875Z,11.40
2019-03-09T17:54:21.201Z,11.30
2019-03-09T17:56:52.346Z,11.30
2019-03-09T17:59:23.299Z,11.30
2019-03-09T18:01:53.769Z,11.30
2019-03-09T18:04:24.771Z,11.20
2019-03-09T18:06:54.908Z,11.30
2019-03-09T18:09:27.903Z,11.30
2019-03-09T18:11:58.836Z,11.30
2019-03-09T18:14:29.994Z,11.40
2019-03-09T18:17:00.003Z,11.30
2019-03-09T18:19:30.797Z,11.30
2019-03-09T18:22:01.596Z,11.20
2019-03-09T18:24:32.533Z,11.20
2019-03-09T18:27:03.469Z,11.20
2019-03-09T18:29:34.861Z,11.20
2019-03-09T18:32:05.983Z,11.20
2019-03-09T18:34:36.703Z,11.20
2019-03-09T18:37:06.825Z,11.20
2019-03-09T18:39:38.005Z,11.20
2019-03-09T18:42:09.126Z,11.30
2019-03-09T18:44:40.014Z,11.30
2019-03-09T18:47:11.424Z,11.30
2019-03-09T18:49:42.061Z,11.30
2019-03-09T18:52:13.525Z,11.30
2019-03-09T18:54:44.656Z,11.30
2019-03-09T18:57:15.167Z,11.30
2019-03-09T18:59:45.975Z,11.40
2019-03-09T19:02:16.502Z,11.40
2019-03-09T19:04:46.938Z,11.40
2019-03-09T19:07:17.127Z,11.40
2019-03-09T19:09:47.875Z,11.40
2019-03-09T19:12:19.009Z,11.40
2019-03-09T19:14:50.154Z,11.40
2019-03-09T19:17:20.233Z,11.40
2019-03-09T19:19:50.988Z,11.30
2019-03-09T19:22:21.982Z,11.30
2019-03-09T19:24:52.290Z,11.30
2019-03-09T19:27:23.241Z,11.40
2019-03-09T19:29:53.847Z,11.30
2019-03-09T19:32:25.130Z,11.30
2019-03-09T19:34:58.530Z,11.30
2019-03-09T19:37:29.019Z,11.40
2019-03-09T19:39:59.622Z,11.40
2019-03-09T19:42:30.328Z,11.40
2019-03-09T19:45:00.806Z,11.40
2019-03-09T19:47:33.446Z,11.50
2019-03-09T19:50:04.462Z,11.50
2019-03-09T19:52:35.090Z,11.50
2019-03-09T19:55:05.862Z,11.50
2019-03-09T19:57:37.013Z,11.60
2019-03-09T20:00:07.971Z,11.60
2019-03-09T20:02:40.527Z,11.50
2019-03-09T20:05:11.612Z,11.50
2019-03-09T20:07:42.222Z,11.40
2019-03-09T20:10:13.638Z,11.40
2019-03-09T20:12:43.964Z,11.40
2019-03-09T20:15:15.221Z,11.40
2019-03-09T20:17:46.149Z,11.40
2019-03-09T20:20:17.951Z,11.30
2019-03-09T20:22:48.900Z,11.30
2019-03-09T20:25:19.642Z,11.30
2019-03-09T20:27:50.185Z,11.30
2019-03-09T20:30:21.463Z,11.20
2019-03-09T20:32:52.462Z,11.30
2019-03-09T20:35:23.208Z,11.20
2019-03-09T20:37:56.256Z,11.20
2019-03-09T20:40:26.493Z,11.20
2019-03-09T20:42:57.431Z,11.10
2019-03-09T20:45:27.526Z,11.10
2019-03-09T20:47:58.950Z,11.00
2019-03-09T20:50:29.691Z,11.00
2019-03-09T20:53:00.854Z,11.00
2019-03-09T20:55:31.786Z,11.00
2019-03-09T20:58:01.556Z,11.10
2019-03-09T21:00:32.652Z,11.10
2019-03-09T21:03:03.992Z,11.20
2019-03-09T21:05:36.778Z,11.20
2019-03-09T21:08:07.723Z,11.20
2019-03-09T21:10:38.462Z,11.20
2019-03-09T21:13:09.675Z,11.20
2019-03-09T21:15:40.357Z,11.20
2019-03-09T21:18:11.723Z,11.20
2019-03-09T21:20:42.655Z,11.10
2019-03-09T21:23:13.357Z,11.10
2019-03-09T21:25:43.923Z,11.10
2019-03-09T21:28:14.212Z,11.00
2019-03-09T21:30:44.557Z,11.00
2019-03-09T21:33:15.525Z,11.00
2019-03-09T21:35:45.842Z,11.00
2019-03-09T21:38:16.443Z,11.00
2019-03-09T21:40:47.064Z,11.00
2019-03-09T21:43:17.250Z,11.00
2019-03-09T21:45:47.417Z,10.90
2019-03-09T21:48:18.605Z,10.90
2019-03-09T21:50:49.871Z,10.90
2019-03-09T21:53:20.353Z,10.90
2019-03-09T21:55:51.509Z,10.90
2019-03-09T21:58:22.354Z,10.90
2019-03-09T22:00:52.822Z,10.90
2019-03-09T22:03:23.767Z,10.90
2019-03-09T22:06:05.159Z,10.90
2019-03-09T22:08:27.011Z,10.90
2019-03-09T22:10:57.415Z,10.90
2019-03-09T22:13:27.924Z,10.90
2019-03-09T22:15:59.100Z,11.00
2019-03-09T22:18:30.247Z,11.00
2019-03-09T22:21:01.002Z,11.00
2019-03-09T22:23:31.517Z,11.00
2019-03-09T22:26:02.661Z,11.00
2019-03-09T22:28:33.402Z,11.00
2019-03-09T22:31:03.929Z,11.00
2019-03-09T22:33:34.827Z,11.00
2019-03-09T22:36:05.415Z,11.10
2019-03-09T22:38:36.319Z,11.10
2019-03-09T22:41:07.232Z,11.10
2019-03-09T22:43:38.041Z,11.10
2019-03-09T22:46:08.586Z,11.10
2019-03-09T22:48:39.057Z,11.10
2019-03-09T22:51:09.435Z,11.00
2019-03-09T22:53:40.779Z,11.00
2019-03-09T22:56:11.651Z,11.00
2019-03-09T22:58:42.229Z,11.00
2019-03-09T23:01:13.619Z,11.00
2019-03-09T23:03:46.597Z,10.90
2019-03-09T23:06:17.346Z,10.90
2019-03-09T23:08:48.270Z,10.90
2019-03-09T23:11:19.425Z,10.90
2019-03-09T23:13:50.173Z,10.90
2019-03-09T23:16:19.912Z,10.90
2019-03-09T23:18:50.235Z,10.90
2019-03-09T23:21:21.370Z,10.80
2019-03-09T23:23:51.850Z,10.80
2019-03-09T23:26:22.640Z,10.90
2019-03-09T23:28:53.782Z,10.90
2019-03-09T23:31:24.322Z,10.90
2019-03-09T23:33:55.670Z,10.90
2019-03-09T23:36:26.406Z,10.90
2019-03-09T23:38:56.764Z,10.90
2019-03-09T23:41:27.690Z,10.90
2019-03-09T23:43:57.804Z,10.90
2019-03-09T23:46:28.472Z,10.90
2019-03-09T23:48:59.426Z,10.90
2019-03-09T23:51:30.432Z,10.90
2019-03-09T23:54:00.983Z,10.90
2019-03-09T23:56:32.014Z,10.90
2019-03-09T23:59:02.182Z,10.90
